Time;durP1;ratioP1;P1;durP2;ratioP2;P2;SDS_P1;SDS_P2;PMS_P1;PMS_P2;Temp;Humidity;BMP_temperature;BMP_pressure;BME280_temperature;BME280_humidity;BME280_pressure;Samples;Min_cycle;Max_cycle;Signal;HPM_P1;HPM_P2
2023/02/13 00:00:41;;;;;;;;;8.75;7.75;;;;;21.32;42.42;103337.88;5036048;28;46999;-79
2023/02/13 00:03:06;;;;;;;;;8.25;7.75;;;;;21.31;42.02;103345.94;5035617;28;45488;-79
2023/02/13 00:05:31;;;;;;;;;10.00;10.00;;;;;21.29;42.15;103332.81;5036376;28;45397;-79
2023/02/13 00:07:57;;;;;;;;;10.00;8.25;;;;;21.30;42.49;103342.44;5036160;28;45252;-79
2023/02/13 00:10:22;;;;;;;;;8.50;8.50;;;;;21.28;42.67;103333.78;5035899;28;46337;-79
2023/02/13 00:12:47;;;;;;;;;11.00;9.25;;;;;21.28;42.42;103336.44;5036086;28;45469;-79
2023/02/13 00:15:13;;;;;;;;;10.75;7.00;;;;;21.27;42.47;103340.88;5036152;28;45366;-78
2023/02/13 00:17:38;;;;;;;;;11.00;9.00;;;;;21.25;42.55;103326.06;5035744;28;45248;-79
2023/02/13 00:20:04;;;;;;;;;6.50;6.50;;;;;21.22;42.22;103329.78;5018029;28;46213;-78
2023/02/13 00:22:33;;;;;;;;;10.75;9.00;;;;;21.25;42.00;103328.72;5035850;28;45386;-78
2023/02/13 00:24:58;;;;;;;;;9.25;8.25;;;;;21.24;42.11;103325.22;5035950;28;45304;-78
2023/02/13 00:27:24;;;;;;;;;9.50;9.00;;;;;21.24;42.13;103324.34;5035347;28;45302;-77
2023/02/13 00:29:49;;;;;;;;;11.25;9.50;;;;;21.21;42.43;103325.44;5035239;28;47424;-79
2023/02/13 00:32:14;;;;;;;;;10.75;9.00;;;;;21.22;42.22;103321.84;5035304;28;48365;-79
2023/02/13 00:34:40;;;;;;;;;7.75;6.50;;;;;21.13;42.34;103306.66;5035798;28;45578;-79
2023/02/13 00:37:05;;;;;;;;;11.50;9.00;;;;;21.21;42.07;103319.31;5035655;28;45290;-80
2023/02/13 00:39:30;;;;;;;;;8.25;6.75;;;;;21.21;42.26;103320.13;5035586;28;45350;-78
2023/02/13 00:41:56;;;;;;;;;8.50;7.75;;;;;21.19;42.61;103319.41;5035581;28;45363;-78
2023/02/13 00:44:21;;;;;;;;;8.00;8.00;;;;;21.19;42.17;103319.41;5035652;28;45299;-79
2023/02/13 00:46:46;;;;;;;;;9.25;8.75;;;;;21.18;42.18;103315.09;5035316;28;45292;-79
2023/02/13 00:49:12;;;;;;;;;11.00;9.25;;;;;21.17;42.04;103316.88;5017111;28;47886;-79
2023/02/13 00:51:37;;;;;;;;;8.00;6.75;;;;;21.13;42.11;103309.28;5035328;28;45360;-78
2023/02/13 00:54:02;;;;;;;;;8.50;8.50;;;;;21.09;41.84;103298.06;5035745;28;45310;-79
2023/02/13 00:56:28;;;;;;;;;14.50;8.00;;;;;20.91;41.91;103277.28;5035120;28;45256;-79
2023/02/13 00:58:53;;;;;;;;;5.50;5.50;;;;;21.17;41.69;103318.69;5035461;28;45348;-79
2023/02/13 01:01:18;;;;;;;;;6.50;6.50;;;;;21.15;41.78;103316.16;5034989;28;45311;-78
2023/02/13 01:03:44;;;;;;;;;11.50;7.25;;;;;21.15;41.71;103305.56;5035539;28;45393;-78
2023/02/13 01:06:09;;;;;;;;;9.75;8.50;;;;;21.15;41.71;103308.22;5035349;28;45342;-79
2023/02/13 01:08:38;;;;;;;;;7.50;7.50;;;;;21.15;41.72;103310.88;5034066;28;46385;-79
2023/02/13 01:11:04;;;;;;;;;9.50;8.00;;;;;21.15;42.00;103310.03;5035237;28;45453;-78
2023/02/13 01:13:29;;;;;;;;;11.50;9.00;;;;;21.15;41.81;103315.31;5035186;28;45402;-80
2023/02/13 01:15:54;;;;;;;;;5.50;5.50;;;;;21.14;41.80;103303.88;5035038;28;45398;-78
2023/02/13 01:18:20;;;;;;;;;9.75;8.25;;;;;21.05;41.72;103293.97;5035203;28;45438;-79
2023/02/13 01:20:55;;;;;;;;;11.00;8.00;;;;;21.14;41.39;103306.53;5035055;28;45421;-80
2023/02/13 01:23:21;;;;;;;;;5.50;5.50;;;;;21.14;41.58;103311.81;5035347;28;45362;-78
2023/02/13 01:25:46;;;;;;;;;9.00;7.25;;;;;21.13;41.45;103307.47;5017228;28;45364;-78
2023/02/13 01:28:11;;;;;;;;;10.50;9.00;;;;;21.14;41.42;103306.53;5034874;28;46287;-78
2023/02/13 01:30:36;;;;;;;;;9.75;9.00;;;;;21.12;41.40;103311.09;5034893;28;45488;-78
2023/02/13 01:33:02;;;;;;;;;6.75;6.75;;;;;21.09;41.74;103306.03;5035164;28;45390;-79
2023/02/13 01:35:27;;;;;;;;;10.00;10.00;;;;;21.14;41.84;103309.16;5034259;28;45275;-78
2023/02/13 01:37:53;;;;;;;;;8.00;8.00;;;;;21.14;41.58;103308.31;5034846;28;46072;-79
2023/02/13 01:40:18;;;;;;;;;8.00;8.00;;;;;21.02;41.86;103286.25;5037140;28;45304;-79
2023/02/13 01:42:44;;;;;;;;;9.00;7.00;;;;;21.13;41.65;103306.66;5038642;28;45591;-79
2023/02/13 01:45:12;;;;;;;;;6.75;6.75;;;;;21.12;41.71;103303.16;5038017;28;45393;-79
2023/02/13 01:47:45;;;;;;;;;7.75;7.75;;;;;21.13;41.76;103309.28;5038286;28;45457;-79
2023/02/13 01:50:43;;;;;;;;;11.25;10.00;;;;;21.13;41.37;103309.28;5037972;28;45256;-78
2023/02/13 01:53:19;;;;;;;;;8.50;7.50;;;;;21.12;41.72;103305.78;5031110;28;45372;-78
2023/02/13 01:55:56;;;;;;;;;11.25;9.50;;;;;21.11;41.48;103305.91;5038384;28;45377;-79
2023/02/13 01:58:25;;;;;;;;;7.00;7.00;;;;;21.08;41.30;103304.31;5038083;28;45308;-78
2023/02/13 02:00:50;;;;;;;;;8.25;7.75;;;;;21.10;41.80;103306.88;5037410;28;45291;-79
2023/02/13 02:03:21;;;;;;;;;7.25;6.50;;;;;21.10;41.53;103314.81;5036795;28;45771;-79
2023/02/13 02:05:49;;;;;;;;;6.00;6.00;;;;;21.09;41.45;103310.47;5038158;28;45209;-78
2023/02/13 02:08:16;;;;;;;;;11.25;8.50;;;;;21.08;41.27;103304.31;5037994;28;45393;-77
2023/02/13 02:10:42;;;;;;;;;9.50;7.00;;;;;21.07;41.44;103302.66;5037332;28;45346;-78
2023/02/13 02:13:14;;;;;;;;;10.25;8.25;;;;;21.00;41.31;103286.31;5037997;28;45415;-78
2023/02/13 02:15:41;;;;;;;;;9.00;7.00;;;;;21.07;41.06;103302.66;5037560;28;45342;-78
2023/02/13 02:18:14;;;;;;;;;7.25;7.25;;;;;21.06;41.84;103293.84;5037244;28;46474;-78
2023/02/13 02:21:02;;;;;;;;;9.25;7.75;;;;;21.06;41.27;103296.50;5037188;28;45388;-79
2023/02/13 02:24:05;;;;;;;;;4.25;4.25;;;;;21.06;41.55;103290.34;5023864;28;45405;-78
2023/02/13 02:26:42;;;;;;;;;9.00;8.00;;;;;21.06;41.08;103295.66;5037613;28;45434;-78
2023/02/13 02:29:10;;;;;;;;;10.25;9.00;;;;;21.06;41.41;103282.41;5037064;28;45354;-78
2023/02/13 02:31:38;;;;;;;;;7.75;7.25;;;;;21.04;41.25;103293.13;5037390;28;45504;-78
2023/02/13 02:34:27;;;;;;;;;7.50;7.50;;;;;21.04;41.14;103287.84;5036721;28;45883;-78
2023/02/13 02:37:30;;;;;;;;;9.00;7.00;;;;;21.04;41.01;103277.25;5036849;28;45416;-78
2023/02/13 02:40:10;;;;;;;;;12.00;7.00;;;;;21.04;40.98;103274.59;5037330;28;46189;-78
2023/02/13 02:43:07;;;;;;;;;10.75;8.50;;;;;21.04;41.07;103271.97;5036606;28;45365;-78
2023/02/13 02:45:38;;;;;;;;;9.50;7.50;;;;;21.03;41.33;103275.56;4936965;28;45366;-78
2023/02/13 02:51:12;;;;;;;;;7.50;7.50;;;;;21.04;40.92;103281.69;4943844;28;45436;-78
2023/02/13 02:53:48;;;;;;;;;8.00;6.25;;;;;21.03;40.68;103277.34;4956112;28;45393;-78
2023/02/13 02:56:27;;;;;;;;;7.75;7.25;;;;;21.03;40.54;103277.34;4956211;28;45269;-78
2023/02/13 03:07:29;;;;;;;;;8.00;6.75;;;;;21.02;40.93;103284.47;4955846;28;46164;-78
2023/02/13 03:25:12;;;;;;;;;9.00;7.75;;;;;21.00;40.75;103286.31;4936353;28;45748;-77
2023/02/13 03:31:19;;;;;;;;;8.75;8.75;;;;;20.97;40.95;103286.56;4945937;28;45413;-78
2023/02/13 03:34:02;;;;;;;;;7.25;6.75;;;;;20.96;40.64;103283.09;4955425;28;45540;-77
2023/02/13 03:39:51;;;;;;;;;7.50;7.50;;;;;20.91;40.61;103277.28;4955239;28;45365;-77
2023/02/13 03:42:55;;;;;;;;;7.00;7.00;;;;;20.98;40.78;103287.41;4955199;28;45348;-78
2023/02/13 03:51:03;;;;;;;;;8.00;8.00;;;;;20.96;40.61;103280.44;4955108;28;45396;-77
2023/02/13 03:53:34;;;;;;;;;8.50;8.50;;;;;20.96;40.83;103280.44;5019379;28;45413;-77
2023/02/13 04:01:37;;;;;;;;;9.00;7.50;;;;;20.96;40.81;103279.59;5036324;28;45391;-79
2023/02/13 04:04:16;;;;;;;;;10.00;9.75;;;;;20.94;40.72;103273.56;5035282;28;45391;-78
2023/02/13 04:06:47;;;;;;;;;7.00;7.00;;;;;20.95;40.78;103275.22;5036551;28;45433;-77
2023/02/13 04:09:13;;;;;;;;;9.75;7.00;;;;;20.95;40.62;103273.44;5036169;28;45425;-77
2023/02/13 04:12:12;;;;;;;;;7.75;7.75;;;;;20.95;40.64;103275.22;5035859;28;45345;-78
2023/02/13 04:14:50;;;;;;;;;8.00;7.00;;;;;20.95;40.44;103280.53;5036366;28;45409;-77
2023/02/13 04:17:29;;;;;;;;;7.50;7.50;;;;;20.94;40.29;103278.84;5036206;28;45520;-76
2023/02/13 04:19:55;;;;;;;;;8.00;7.75;;;;;20.94;40.38;103289.44;5035874;28;47208;-77
2023/02/13 04:22:20;;;;;;;;;7.25;7.25;;;;;20.94;40.60;103281.50;5035951;28;45407;-77
2023/02/13 04:24:46;;;;;;;;;8.00;8.00;;;;;20.87;40.31;103280.28;5036030;28;45452;-77
2023/02/13 04:27:16;;;;;;;;;4.75;2.75;;;;;20.94;40.32;103284.16;5018188;28;45515;-77
2023/02/13 04:29:41;;;;;;;;;6.75;6.75;;;;;20.87;40.37;103274.97;5035800;28;46386;-77
2023/02/13 04:32:09;;;;;;;;;9.25;6.75;;;;;20.85;40.19;103272.44;5035817;28;45443;-78
2023/02/13 04:34:34;;;;;;;;;9.25;8.75;;;;;20.95;40.35;103283.19;5035705;28;45519;-78
2023/02/13 04:36:59;;;;;;;;;7.50;7.00;;;;;20.95;39.83;103281.38;5035793;28;45331;-78
2023/02/13 04:39:25;;;;;;;;;7.25;7.25;;;;;20.95;40.17;103280.53;5035235;28;45335;-78
2023/02/13 04:41:50;;;;;;;;;7.25;7.25;;;;;20.94;40.19;103276.22;5017515;28;45550;-78
2023/02/13 04:44:15;;;;;;;;;8.00;8.00;;;;;20.95;40.01;103275.22;5035150;28;45296;-78
2023/02/13 04:46:40;;;;;;;;;6.75;5.75;;;;;20.95;40.18;103280.53;5035960;28;45370;-78
2023/02/13 04:49:06;;;;;;;;;7.50;6.00;;;;;20.94;40.34;103271.78;5035377;28;45373;-77
2023/02/13 04:51:31;;;;;;;;;10.25;9.00;;;;;20.93;40.24;103269.22;5034705;28;45528;-78
2023/02/13 04:53:56;;;;;;;;;9.75;7.75;;;;;20.94;40.10;103274.41;5035171;28;45386;-78
2023/02/13 04:56:22;;;;;;;;;6.75;6.75;;;;;20.94;40.27;103265.63;5035670;28;45497;-78
2023/02/13 04:58:47;;;;;;;;;8.75;7.25;;;;;20.94;40.05;103270.91;5035491;28;46215;-78
2023/02/13 05:01:15;;;;;;;;;8.25;8.00;;;;;20.85;40.03;103253.91;5035406;28;45318;-78
2023/02/13 05:03:41;;;;;;;;;8.75;8.75;;;;;20.84;40.24;103255.69;5035641;28;45319;-78
2023/02/13 05:06:06;;;;;;;;;8.00;8.00;;;;;20.94;40.14;103268.28;5035395;28;45380;-77
2023/02/13 05:08:32;;;;;;;;;8.50;7.50;;;;;20.93;40.10;103267.41;5034732;28;46250;-77
2023/02/13 05:10:57;;;;;;;;;7.75;7.75;;;;;20.93;40.19;103261.28;5035281;28;45319;-78
2023/02/13 05:13:23;;;;;;;;;9.25;7.25;;;;;20.93;40.40;103262.13;5035546;28;45373;-78
2023/02/13 05:15:48;;;;;;;;;10.75;8.75;;;;;20.86;40.12;103255.59;5038580;28;45499;-78
2023/02/13 05:18:14;;;;;;;;;10.50;8.00;;;;;20.92;40.21;103257.78;5038653;28;45335;-78
2023/02/13 05:20:40;;;;;;;;;5.50;5.50;;;;;20.89;39.70;103260.69;5038705;28;45407;-78
2023/02/13 05:23:21;;;;;;;;;9.50;8.25;;;;;20.92;40.14;103257.78;5038595;28;45295;-77
2023/02/13 05:25:47;;;;;;;;;8.75;8.00;;;;;20.91;39.97;103252.63;5038652;28;45346;-77
2023/02/13 05:30:57;;;;;;;;;8.50;7.75;;;;;20.90;39.71;103265.00;5038332;28;45581;-77
2023/02/13 05:33:23;;;;;;;;;6.00;6.00;;;;;20.90;39.90;103266.78;5038665;28;45449;-78
2023/02/13 05:35:48;;;;;;;;;6.25;6.25;;;;;20.91;39.91;103271.13;5038419;28;45463;-76
2023/02/13 05:38:14;;;;;;;;;7.50;7.50;;;;;20.83;40.04;103256.69;5038020;28;46084;-77
2023/02/13 05:40:39;;;;;;;;;6.25;6.25;;;;;20.89;39.85;103271.25;5038540;28;45709;-77
2023/02/13 05:43:04;;;;;;;;;8.75;7.00;;;;;20.89;39.84;103273.06;5038398;28;45292;-77
2023/02/13 05:45:30;;;;;;;;;8.00;7.00;;;;;20.89;39.86;103278.34;5038656;28;45263;-78
2023/02/13 05:47:55;;;;;;;;;8.25;7.25;;;;;20.87;39.78;103277.63;5038361;28;45944;-77
2023/02/13 05:50:20;;;;;;;;;8.50;8.00;;;;;20.84;39.52;103273.41;5038049;28;45447;-77
2023/02/13 05:52:46;;;;;;;;;8.75;8.25;;;;;20.88;39.68;103290.72;5038275;28;45496;-77
2023/02/13 05:55:11;;;;;;;;;7.75;7.50;;;;;20.87;39.87;103285.56;5038228;28;45362;-77
2023/02/13 05:57:36;;;;;;;;;8.00;8.00;;;;;20.83;39.69;103280.50;5038177;28;47022;-77
2023/02/13 06:00:03;;;;;;;;;10.00;7.50;;;;;20.88;39.85;103279.28;5038160;28;47593;-77
2023/02/13 06:02:28;;;;;;;;;8.25;6.00;;;;;20.87;39.57;103275.81;5038220;28;45438;-77
2023/02/13 06:04:54;;;;;;;;;5.50;5.00;;;;;20.89;39.65;103273.06;5037818;28;45433;-77
2023/02/13 06:07:19;;;;;;;;;7.25;6.75;;;;;20.88;39.42;103274.84;5037591;28;46283;-78
2023/02/13 06:09:44;;;;;;;;;7.00;5.75;;;;;20.89;39.43;103281.00;5037968;28;45377;-78
2023/02/13 06:12:10;;;;;;;;;9.25;6.50;;;;;20.90;39.43;103280.03;5038180;28;45393;-78
2023/02/13 06:14:35;;;;;;;;;6.00;6.00;;;;;20.88;39.67;103277.50;5038190;28;45346;-77
2023/02/13 06:17:00;;;;;;;;;8.00;7.75;;;;;20.89;39.41;103281.00;5037839;28;45993;-78
2023/02/13 06:19:26;;;;;;;;;6.50;6.50;;;;;20.89;39.53;103288.94;5038123;28;45389;-77
2023/02/13 06:21:51;;;;;;;;;10.50;8.25;;;;;20.89;39.78;103286.28;5037647;28;45689;-78
2023/02/13 06:24:16;;;;;;;;;8.50;8.50;;;;;20.88;39.70;103285.44;5038031;28;45409;-75
2023/02/13 06:26:42;;;;;;;;;6.25;6.00;;;;;20.89;39.62;103284.50;5036816;28;45473;-75
2023/02/13 06:29:08;;;;;;;;;10.75;9.00;;;;;20.89;39.13;103288.94;5037597;28;45256;-75
2023/02/13 06:31:33;;;;;;;;;6.00;6.00;;;;;20.82;39.63;103277.94;5037579;28;45395;-75
2023/02/13 06:33:59;;;;;;;;;8.00;7.25;;;;;20.89;39.88;103288.94;5037568;28;45485;-76
2023/02/13 06:36:24;;;;;;;;;12.00;8.25;;;;;20.90;39.82;103288.81;5037131;28;45322;-75
2023/02/13 06:38:49;;;;;;;;;9.25;6.00;;;;;20.90;39.89;103280.88;5037581;28;45185;-75
2023/02/13 06:41:15;;;;;;;;;14.75;10.50;;;;;20.83;40.04;103272.56;5037457;28;45378;-75
2023/02/13 06:43:40;;;;;;;;;6.50;6.50;;;;;20.93;39.95;103295.69;5037558;28;45247;-74
2023/02/13 06:46:07;;;;;;;;;7.00;7.00;;;;;20.93;39.94;103295.69;5037533;28;45354;-69
2023/02/13 06:48:32;;;;;;;;;12.00;10.50;;;;;20.93;38.65;103290.38;5037231;28;45505;-75
2023/02/13 06:51:00;;;;;;;;;12.75;11.75;;;;;20.90;39.25;103294.09;5032292;28;45513;-73
2023/02/13 06:53:25;;;;;;;;;10.50;7.25;;;;;20.80;39.56;103291.28;5030614;28;45347;-74
2023/02/13 06:55:52;;;;;;;;;6.75;6.75;;;;;20.90;39.83;103303.84;5037075;28;45416;-74
2023/02/13 06:58:18;;;;;;;;;9.25;9.25;;;;;20.90;39.68;103303.84;5036767;28;45300;-74
2023/02/13 07:00:43;;;;;;;;;10.75;10.75;;;;;20.90;39.18;103306.50;5036928;28;45309;-73
2023/02/13 07:03:09;;;;;;;;;9.25;7.00;;;;;20.89;39.14;103302.16;5037160;28;45264;-74
2023/02/13 07:05:35;;;;;;;;;7.75;7.75;;;;;20.88;39.59;103296.03;5018798;28;46852;-73
2023/02/13 07:08:00;;;;;;;;;7.50;7.50;;;;;20.90;39.60;103311.78;5036805;28;45342;-73
2023/02/13 07:10:25;;;;;;;;;10.25;8.50;;;;;20.89;39.31;103310.09;5037191;28;45359;-73
2023/02/13 07:12:51;;;;;;;;;9.00;9.00;;;;;20.89;39.44;103307.47;5035856;28;45536;-72
2023/02/13 07:15:16;;;;;;;;;9.25;8.00;;;;;20.88;39.30;103306.63;5035374;28;46236;-74
2023/02/13 07:17:42;;;;;;;;;7.50;7.00;;;;;20.88;39.50;103311.06;5035963;28;45445;-75
2023/02/13 07:20:08;;;;;;;;;9.00;8.00;;;;;20.87;39.31;103318.13;5036393;28;45474;-75
2023/02/13 07:22:33;;;;;;;;;8.00;8.00;;;;;20.85;39.50;103320.91;5036896;28;45383;-75
2023/02/13 07:25:00;;;;;;;;;7.25;7.25;;;;;20.88;39.69;103329.56;5036475;28;45395;-75
2023/02/13 07:27:28;;;;;;;;;13.50;9.25;;;;;20.88;39.53;103324.28;5036148;28;45312;-77
2023/02/13 07:29:56;;;;;;;;;11.50;10.00;;;;;20.80;39.66;103319.53;5036455;28;45346;-76
2023/02/13 07:32:22;;;;;;;;;7.25;7.25;;;;;20.88;39.55;103342.81;5036892;28;45267;-72
2023/02/13 07:34:48;;;;;;;;;8.25;7.50;;;;;20.87;39.42;103341.97;5036389;28;47374;-75
2023/02/13 07:37:13;;;;;;;;;10.25;8.25;;;;;20.85;39.67;103342.09;5036315;28;45325;-74
2023/02/13 07:39:39;;;;;;;;;9.50;9.50;;;;;20.88;39.58;103341.00;5036630;28;45417;-81
2023/02/13 07:42:05;;;;;;;;;8.75;7.25;;;;;20.82;39.73;103331.72;5036668;28;45364;-74
2023/02/13 07:44:30;;;;;;;;;7.25;7.00;;;;;20.89;39.69;103341.88;5036429;28;45408;-78
2023/02/13 07:46:56;;;;;;;;;10.00;8.00;;;;;20.88;40.32;103346.31;5035859;28;45310;-75
2023/02/13 07:49:21;;;;;;;;;10.50;7.75;;;;;20.87;40.22;103354.38;5036502;28;45266;-75
2023/02/13 07:51:46;;;;;;;;;7.00;7.00;;;;;20.89;40.07;103349.81;5036166;28;46842;-74
2023/02/13 07:54:12;;;;;;;;;9.75;8.75;;;;;20.89;40.04;103357.75;5036347;28;46219;-75
2023/02/13 07:56:37;;;;;;;;;7.00;7.00;;;;;20.89;40.31;103349.81;5035632;28;45395;-75
2023/02/13 07:59:02;;;;;;;;;9.50;8.00;;;;;20.89;39.86;103349.81;5036409;28;45463;-75
2023/02/13 08:01:28;;;;;;;;;11.75;8.00;;;;;20.88;39.83;103343.66;5036156;28;45360;-75
2023/02/13 08:03:53;;;;;;;;;7.50;6.50;;;;;20.89;40.02;103349.81;5035197;28;46262;-74
2023/02/13 08:06:19;;;;;;;;;10.50;10.00;;;;;20.88;40.02;103353.41;5036237;28;45256;-75
2023/02/13 08:08:45;;;;;;;;;8.00;6.50;;;;;20.83;39.92;103340.50;5036332;28;45353;-75
2023/02/13 08:14:16;;;;;;;;;8.75;8.50;;;;;20.88;40.10;103345.44;5036090;28;45772;-75
2023/02/13 08:16:41;;;;;;;;;10.50;9.25;;;;;20.87;39.98;103344.59;5035677;28;45470;-75
2023/02/13 08:19:06;;;;;;;;;8.00;8.00;;;;;20.87;40.08;103343.78;5036124;28;45347;-75
2023/02/13 08:21:34;;;;;;;;;4.00;4.00;;;;;20.88;39.88;103348.94;5036240;28;45349;-75
2023/02/13 08:23:59;;;;;;;;;8.75;7.00;;;;;20.87;40.14;103346.44;5035793;28;46540;-75
2023/02/13 08:26:24;;;;;;;;;7.00;7.00;;;;;20.87;39.92;103344.59;5035758;28;45380;-75
2023/02/13 08:28:50;;;;;;;;;11.25;9.50;;;;;20.80;39.93;103336.28;5017974;28;45323;-75
2023/02/13 08:31:15;;;;;;;;;8.50;8.00;;;;;20.87;40.06;103352.53;5035469;28;45362;-74
2023/02/13 08:33:40;;;;;;;;;9.00;9.00;;;;;20.87;39.78;103354.38;5035150;28;45334;-75
2023/02/13 08:36:06;;;;;;;;;10.00;8.00;;;;;20.87;39.76;103346.44;5035543;28;45335;-75
2023/02/13 08:38:32;;;;;;;;;8.00;7.25;;;;;20.87;40.22;103347.25;5018002;28;45411;-75
2023/02/13 08:40:58;;;;;;;;;7.50;7.25;;;;;20.88;39.74;103350.75;5035741;28;45403;-75
2023/02/13 08:43:23;;;;;;;;;10.00;7.50;;;;;20.88;39.74;103346.31;5035453;28;45382;-75
2023/02/13 08:45:48;;;;;;;;;11.00;7.75;;;;;20.88;39.77;103342.81;5035482;28;45407;-75
2023/02/13 08:48:14;;;;;;;;;10.50;9.75;;;;;20.88;39.73;103338.38;5035492;28;45394;-75
2023/02/13 08:50:39;;;;;;;;;9.25;6.50;;;;;20.89;39.80;103344.50;5035045;28;45349;-75
2023/02/13 08:53:04;;;;;;;;;10.25;8.25;;;;;20.89;39.63;103328.63;5035479;28;46199;-75
2023/02/13 08:55:30;;;;;;;;;10.00;8.50;;;;;20.84;39.30;103321.84;5035487;28;45215;-75
2023/02/13 08:57:59;;;;;;;;;11.50;9.75;;;;;20.90;39.21;103328.50;5035666;28;45295;-75
2023/02/13 09:00:25;;;;;;;;;13.50;9.00;;;;;20.87;39.36;103325.25;5035163;28;45391;-75
2023/02/13 09:02:50;;;;;;;;;3.25;2.00;;;;;20.90;39.14;103332.94;5035436;28;45405;-75
2023/02/13 09:05:15;;;;;;;;;10.25;9.25;;;;;20.89;39.30;103332.13;5017058;28;45264;-75
2023/02/13 09:07:41;;;;;;;;;10.00;9.00;;;;;20.89;39.49;103333.94;5035380;28;45334;-75
2023/02/13 09:10:06;;;;;;;;;11.00;9.25;;;;;20.90;39.24;103336.44;5035419;28;45343;-75
2023/02/13 09:12:32;;;;;;;;;10.25;8.75;;;;;20.91;39.49;103332.84;5035213;28;46321;-75
2023/02/13 09:14:57;;;;;;;;;9.00;7.25;;;;;20.90;39.45;103330.31;5034768;28;45439;-75
2023/02/13 09:17:22;;;;;;;;;8.75;8.25;;;;;20.91;39.58;103332.84;5035362;28;45570;-75
2023/02/13 09:19:48;;;;;;;;;10.25;8.75;;;;;20.91;39.20;103332.00;5035377;28;45372;-75
2023/02/13 09:22:15;;;;;;;;;10.00;8.50;;;;;20.89;39.30;103329.47;5035149;28;47147;-75
2023/02/13 09:24:41;;;;;;;;;11.00;9.25;;;;;20.91;39.69;103334.66;5033915;28;45437;-74
2023/02/13 09:27:07;;;;;;;;;10.50;10.00;;;;;20.89;39.22;103333.94;5035101;28;45393;-74
2023/02/13 09:29:32;;;;;;;;;8.75;8.75;;;;;20.88;39.29;103334.88;5034763;28;45422;-75
2023/02/13 09:31:58;;;;;;;;;13.25;10.75;;;;;20.90;39.34;103331.16;5034823;28;46999;-74
2023/02/13 09:34:23;;;;;;;;;12.75;9.25;;;;;20.90;39.20;103333.81;5034685;28;46128;-74
2023/02/13 09:36:56;;;;;;;;;11.00;10.25;;;;;20.90;39.41;103336.44;5035205;28;45351;-74
2023/02/13 09:39:22;;;;;;;;;13.00;9.00;;;;;20.89;39.52;103340.06;5035096;28;45300;-74
2023/02/13 09:41:50;;;;;;;;;8.25;7.25;;;;;20.90;39.03;103344.38;5034748;28;46392;-75
2023/02/13 09:44:36;;;;;;;;;10.50;8.25;;;;;20.91;39.53;103347.88;5034750;28;45302;-75
2023/02/13 09:47:13;;;;;;;;;9.50;9.50;;;;;20.84;39.08;103343.03;5033621;28;45291;-75
2023/02/13 09:49:44;;;;;;;;;11.50;11.00;;;;;20.80;39.31;103341.56;5034820;28;45545;-75
2023/02/13 09:52:10;;;;;;;;;12.00;10.50;;;;;20.88;39.61;103351.59;5034557;28;45521;-75
2023/02/13 09:54:35;;;;;;;;;9.75;8.00;;;;;20.83;39.32;103337.84;5034702;28;45457;-75
2023/02/13 09:57:11;;;;;;;;;10.75;10.75;;;;;20.81;39.40;103340.63;5034079;28;45403;-75
2023/02/13 09:59:52;;;;;;;;;7.00;7.00;;;;;20.87;39.04;103344.59;5034517;28;45382;-74
2023/02/13 10:02:45;;;;;;;;;12.25;10.25;;;;;20.87;39.46;103359.66;5036256;28;45652;-75
2023/02/13 10:05:33;;;;;;;;;11.50;10.25;;;;;20.87;39.25;103351.72;5038074;28;45256;-75
2023/02/13 10:08:07;;;;;;;;;13.00;13.00;;;;;20.87;39.59;103344.59;5038288;28;45397;-75
2023/02/13 10:11:06;;;;;;;;;14.25;10.00;;;;;20.87;39.04;103343.78;5038040;28;45610;-75
2023/02/13 10:13:56;;;;;;;;;9.25;8.50;;;;;20.88;39.06;103342.81;5036471;28;45556;-75
2023/02/13 10:16:27;;;;;;;;;13.75;10.00;;;;;20.88;39.28;103354.25;5037796;28;45362;-75
2023/02/13 10:19:30;;;;;;;;;10.50;9.50;;;;;20.90;38.87;103351.47;5037707;28;45347;-75
2023/02/13 10:22:00;;;;;;;;;12.00;9.50;;;;;20.90;39.04;103348.81;5037850;28;45347;-75
2023/02/13 10:24:35;;;;;;;;;11.50;11.50;;;;;20.90;38.92;103346.19;5037564;28;45402;-75
2023/02/13 10:27:12;;;;;;;;;12.25;10.25;;;;;20.91;39.16;103345.25;5037182;28;45436;-75
2023/02/13 10:32:41;;;;;;;;;10.50;10.50;;;;;20.92;38.85;103342.47;5037780;28;45291;-74
2023/02/13 10:35:18;;;;;;;;;11.50;10.00;;;;;20.84;39.07;103332.44;5019117;28;46365;-74
2023/02/13 10:37:49;;;;;;;;;14.50;11.25;;;;;20.82;39.03;103326.41;5037407;28;45501;-75
2023/02/13 10:40:17;;;;;;;;;12.00;10.50;;;;;20.91;38.64;103339.94;5037334;28;45377;-74
2023/02/13 10:43:01;;;;;;;;;9.25;9.00;;;;;20.91;39.12;103338.16;5036962;28;45486;-75
2023/02/13 10:45:45;;;;;;;;;12.75;10.50;;;;;20.91;39.17;103338.16;5036632;28;46382;-75
2023/02/13 10:48:37;;;;;;;;;12.50;11.75;;;;;20.89;39.08;103324.19;5037023;28;45360;-75
2023/02/13 10:51:23;;;;;;;;;14.75;10.25;;;;;20.92;38.92;103334.53;4983517;28;45294;-75
2023/02/13 10:54:10;;;;;;;;;12.00;11.75;;;;;20.91;39.16;103327.56;4995243;28;45563;-75
2023/02/13 10:56:42;;;;;;;;;11.00;9.50;;;;;20.91;39.25;103329.34;4994657;28;46125;-75
2023/02/13 10:59:29;;;;;;;;;13.00;11.00;;;;;20.92;38.85;103331.88;4994531;28;45451;-75
2023/02/13 11:02:02;;;;;;;;;13.50;10.75;;;;;20.92;38.74;103336.34;4995123;28;45489;-75
2023/02/13 11:04:28;;;;;;;;;14.00;12.50;;;;;20.92;39.29;103328.41;4995180;28;45317;-75
2023/02/13 11:06:58;;;;;;;;;13.50;11.00;;;;;20.92;39.25;103325.78;4994717;28;46205;-75
2023/02/13 11:09:24;;;;;;;;;10.75;9.50;;;;;20.91;39.03;103322.28;4994881;28;45463;-75
2023/02/13 11:11:49;;;;;;;;;14.00;12.25;;;;;20.92;38.95;103323.94;4994421;28;45531;-74
2023/02/13 11:14:25;;;;;;;;;15.00;11.75;;;;;20.91;38.93;103316.13;4995059;28;45348;-75
2023/02/13 11:16:54;;;;;;;;;13.75;12.75;;;;;20.92;39.28;103313.34;4994703;28;46967;-75
2023/02/13 11:19:29;;;;;;;;;14.50;12.25;;;;;20.93;39.03;103308.91;4994818;28;45285;-75
2023/02/13 11:22:03;;;;;;;;;11.00;8.75;;;;;20.93;38.81;103311.56;4994997;28;45618;-75
2023/02/13 11:24:30;;;;;;;;;13.25;12.75;;;;;20.92;38.97;103313.34;4994544;28;45336;-75
2023/02/13 11:27:12;;;;;;;;;11.25;10.00;;;;;20.93;38.83;103298.31;4994380;28;46023;-75
2023/02/13 11:29:57;;;;;;;;;11.25;8.75;;;;;20.92;39.03;103300.13;5018158;28;45400;-75
2023/02/13 11:32:30;;;;;;;;;9.00;9.00;;;;;20.92;39.10;103297.47;5036604;28;45337;-74
2023/02/13 11:34:56;;;;;;;;;13.75;11.25;;;;;20.91;39.03;103285.22;5036379;28;45310;-75
2023/02/13 11:37:27;;;;;;;;;13.00;12.50;;;;;20.93;38.35;103277.16;5036461;28;45968;-74
2023/02/13 11:39:58;;;;;;;;;12.00;10.75;;;;;20.93;38.97;103283.31;5036106;28;45331;-76
2023/02/13 11:42:33;;;;;;;;;12.00;11.00;;;;;20.83;38.90;103255.81;5036488;28;45295;-75
2023/02/13 11:45:19;;;;;;;;;11.25;11.25;;;;;20.85;38.88;103257.41;5037005;28;45364;-75
2023/02/13 11:47:45;;;;;;;;;16.00;15.25;;;;;20.94;38.42;103270.91;5035717;28;45439;-74
2023/02/13 11:50:31;;;;;;;;;9.00;9.00;;;;;20.95;38.87;103269.94;5036304;28;45295;-75
2023/02/13 11:53:20;;;;;;;;;7.25;7.25;;;;;20.94;38.67;103269.13;5035806;28;45362;-74
2023/02/13 11:56:02;;;;;;;;;10.75;10.50;;;;;20.95;38.92;103269.94;5035940;28;45317;-75
2023/02/13 11:58:29;;;;;;;;;16.00;12.50;;;;;20.94;39.18;103258.53;5036260;28;46535;-75
2023/02/13 12:01:18;;;;;;;;;15.00;12.00;;;;;20.95;38.88;103254.91;5036102;28;45367;-75
2023/02/13 12:03:43;;;;;;;;;10.00;10.00;;;;;20.96;38.54;103264.56;5035397;28;45441;-75
2023/02/13 12:06:14;;;;;;;;;9.50;9.25;;;;;20.97;38.75;103257.47;5036368;28;45408;-74
2023/02/13 12:08:44;;;;;;;;;12.50;12.50;;;;;20.97;39.06;103254.81;5035788;28;46039;-74
2023/02/13 12:11:13;;;;;;;;;13.25;11.75;;;;;20.97;38.75;103252.16;5035828;28;45546;-75
2023/02/13 12:13:38;;;;;;;;;11.50;10.25;;;;;20.96;38.93;103251.31;5035307;28;45346;-75
2023/02/13 12:16:15;;;;;;;;;12.25;11.25;;;;;20.96;39.02;103247.81;5036019;28;45410;-75
2023/02/13 12:18:46;;;;;;;;;13.00;10.50;;;;;20.95;38.90;103246.13;5035433;28;47052;-74
2023/02/13 12:21:26;;;;;;;;;12.25;11.25;;;;;20.95;38.72;103246.97;5035926;28;45407;-75
2023/02/13 12:24:29;;;;;;;;;14.50;12.00;;;;;20.94;38.68;103240.00;5033864;28;45366;-75